메인 페이지
METAR-TAF:

METAR-TAF

공항 :

호바트 국제공항

호바트, 오스트레일리아

위도: 42-50S, 경도: 147-29E, 고도: 4m

현재 날씨관측

예보는 37분 전, 14:00시(UTC)에 발표되었습니다.
북북서4kt
온도 4°C
습도 100%
기압 1028 hPa
시정 10km 이상

METAR: YMHB 251400Z AUTO 33004KT 9999 // NCD 04/04 Q1028 RF00.0/000.0

시각: 00:37 (14:37 UTC)

예보

예보는 3 시간 15분 전, 11:22시(UTC)에 발표되었습니다.
예보 대상 시간: 25일 12시부터 26일 12시까지 (UTC)
북북서6kt
시정 10km 이상
고도 4500ft 상공 구름 조금

TAF: YMHB 251122Z 2512/2612 34006KT 9999 FEW045

4,000개 이상의 공항 관측 자료 및 예보 (METAR 및 TAF 보고).

지도상에서 검색 가능한 기상관측소가 노란 점과 빨간 점으로 표시되어 있습니다.

기상관측소 명을 보려면 표시 위로 마우스를 이동하세요.

날씨 관측과 예보를 보려면 클릭하세요.

지도 변경 : 확대하려면 엑스 표시가 있는 녹색 버튼, 축소하려면 빼기 표시가 있는 녹색 버튼, 다음 페이지의 지도를 보려면 녹색 화살표를 클릭하세요.


METAR-TAF: